Time;durP1;ratioP1;P1;durP2;ratioP2;P2;SDS_P1;SDS_P2;PMS_P1;PMS_P2;Temp;Humidity;BMP_temperature;BMP_pressure;BME280_temperature;BME280_humidity;BME280_pressure;Samples;Min_cycle;Max_cycle;Signal;HPM_P1;HPM_P2
2024/01/05 00:02:11;;;;;;;6.47;3.00;;;1.70;99.90;;;;;;4986912;28;20177;-60
2024/01/05 00:04:37;;;;;;;3.60;3.00;;;1.60;99.90;;;;;;4981017;28;20201;-60
2024/01/05 00:07:03;;;;;;;2.97;2.50;;;1.60;99.90;;;;;;4982664;28;20174;-60
2024/01/05 00:09:28;;;;;;;2.50;2.20;;;1.60;99.90;;;;;;4987581;28;20244;-59
2024/01/05 00:11:54;;;;;;;3.13;2.87;;;1.60;99.90;;;;;;4975052;28;20177;-60
2024/01/05 00:14:19;;;;;;;3.83;2.93;;;1.70;99.90;;;;;;4987116;28;20181;-59
2024/01/05 00:16:46;;;;;;;4.50;3.53;;;1.70;99.90;;;;;;4988315;28;20181;-60
2024/01/05 00:19:12;;;;;;;5.20;2.93;;;1.70;99.90;;;;;;4987029;28;20208;-60
2024/01/05 00:21:38;;;;;;;3.90;2.57;;;1.70;99.90;;;;;;4989742;28;20417;-59
2024/01/05 00:24:03;;;;;;;3.30;2.50;;;1.50;99.90;;;;;;4986098;28;20460;-60
2024/01/05 00:26:29;;;;;;;5.83;3.30;;;1.60;99.90;;;;;;4989574;28;20201;-60
2024/01/05 00:28:54;;;;;;;5.70;3.07;;;1.60;99.90;;;;;;4988810;28;20252;-60
2024/01/05 00:31:20;;;;;;;3.83;2.53;;;1.60;99.90;;;;;;4990653;28;20173;-60
2024/01/05 00:33:46;;;;;;;5.87;3.00;;;1.60;99.90;;;;;;4991148;28;20215;-60
2024/01/05 00:36:12;;;;;;;3.10;2.50;;;1.60;99.90;;;;;;4990212;28;20276;-60
2024/01/05 00:38:38;;;;;;;3.80;3.27;;;1.60;99.90;;;;;;4993190;28;20527;-60
2024/01/05 00:41:05;;;;;;;5.87;3.17;;;1.60;99.90;;;;;;4973677;28;20633;-60
2024/01/05 00:43:30;;;;;;;7.83;3.40;;;1.70;99.90;;;;;;4979914;28;20484;-61
2024/01/05 00:45:56;;;;;;;7.93;4.60;;;1.70;99.90;;;;;;4984870;28;20484;-60
2024/01/05 00:48:22;;;;;;;5.10;3.70;;;1.60;99.90;;;;;;4989735;28;20165;-60
2024/01/05 00:50:48;;;;;;;4.30;3.80;;;1.70;99.90;;;;;;4979673;28;20264;-61
2024/01/05 00:53:13;;;;;;;4.70;4.27;;;1.80;99.90;;;;;;4985632;28;20467;-61
2024/01/05 00:55:39;;;;;;;5.40;3.53;;;1.80;99.90;;;;;;4986025;28;20205;-60
2024/01/05 00:58:05;;;;;;;5.50;3.97;;;1.80;99.90;;;;;;4973517;28;20177;-61
2024/01/05 01:00:31;;;;;;;4.60;4.10;;;1.70;99.90;;;;;;4978098;28;20178;-60
2024/01/05 01:02:56;;;;;;;6.00;4.03;;;1.70;99.90;;;;;;4970438;28;20177;-61
2024/01/05 01:05:22;;;;;;;4.70;4.30;;;1.70;99.90;;;;;;4971564;28;20461;-60
2024/01/05 01:07:48;;;;;;;5.90;3.97;;;1.80;99.90;;;;;;4970374;28;20196;-60
2024/01/05 01:10:14;;;;;;;4.70;4.00;;;1.80;99.90;;;;;;4969852;28;20295;-61
2024/01/05 01:12:39;;;;;;;4.93;4.37;;;1.80;99.90;;;;;;4974923;28;20256;-63
2024/01/05 01:15:06;;;;;;;5.13;3.50;;;1.80;99.90;;;;;;4970697;28;20945;-60
2024/01/05 01:17:32;;;;;;;5.00;3.50;;;1.80;99.90;;;;;;4972491;28;20561;-60
2024/01/05 01:19:58;;;;;;;3.33;2.93;;;1.80;99.90;;;;;;4970219;28;20417;-62
2024/01/05 01:22:23;;;;;;;3.93;2.60;;;1.80;99.90;;;;;;4972351;28;20261;-60
2024/01/05 01:24:49;;;;;;;5.87;3.00;;;1.70;99.90;;;;;;4972377;28;20253;-60
2024/01/05 01:27:15;;;;;;;3.73;3.13;;;1.70;99.90;;;;;;4971831;28;20174;-61
2024/01/05 01:29:41;;;;;;;3.83;2.33;;;1.70;99.90;;;;;;4972209;28;20736;-61
2024/01/05 01:32:09;;;;;;;11.37;3.67;;;1.70;99.90;;;;;;4979159;28;20457;-61
2024/01/05 01:34:35;;;;;;;4.30;3.90;;;1.80;99.90;;;;;;4974834;28;20202;-61
2024/01/05 01:37:00;;;;;;;3.73;3.27;;;1.70;99.90;;;;;;4975838;28;20415;-61
2024/01/05 01:39:26;;;;;;;5.23;3.83;;;1.70;99.90;;;;;;4976549;28;20431;-60
2024/01/05 01:41:51;;;;;;;4.40;3.70;;;1.60;99.90;;;;;;4974423;28;20172;-61
2024/01/05 01:44:17;;;;;;;3.77;3.10;;;1.60;99.90;;;;;;4989892;28;20201;-60
2024/01/05 01:46:43;;;;;;;4.00;3.60;;;1.70;99.90;;;;;;4971997;28;20190;-60
2024/01/05 01:49:09;;;;;;;3.00;2.70;;;1.70;99.90;;;;;;4971878;28;20628;-60
2024/01/05 01:51:36;;;;;;;6.13;2.80;;;1.60;99.90;;;;;;4973259;28;20432;-59
2024/01/05 01:54:06;;;;;;;8.90;3.10;;;1.60;99.90;;;;;;4975175;28;20517;-61
2024/01/05 01:56:33;;;;;;;2.47;2.23;;;1.50;99.90;;;;;;4973000;28;20476;-61
2024/01/05 01:58:59;;;;;;;6.03;2.80;;;1.50;99.90;;;;;;4972524;28;20427;-60
2024/01/05 02:01:25;;;;;;;4.47;2.73;;;1.50;99.90;;;;;;4973344;28;20998;-59
2024/01/05 02:03:51;;;;;;;6.27;2.70;;;1.50;99.90;;;;;;4972396;28;20845;-60
2024/01/05 02:06:17;;;;;;;3.73;2.43;;;1.50;99.90;;;;;;4974402;28;21006;-60
2024/01/05 02:08:44;;;;;;;4.17;2.47;;;1.50;99.90;;;;;;4973343;28;20516;-58
2024/01/05 02:11:09;;;;;;;5.23;2.23;;;1.50;99.90;;;;;;4976702;28;20203;-60
2024/01/05 02:13:35;;;;;;;4.03;2.90;;;1.50;99.90;;;;;;4971484;28;20434;-60
2024/01/05 02:16:00;;;;;;;5.30;2.50;;;1.50;99.90;;;;;;4968065;28;20613;-60
2024/01/05 02:18:26;;;;;;;3.60;2.70;;;1.50;99.90;;;;;;4973655;28;20174;-60
2024/01/05 02:20:52;;;;;;;6.40;3.23;;;1.60;99.90;;;;;;4972404;28;20188;-60
2024/01/05 02:23:25;;;;;;;2.20;2.10;;;1.60;99.90;;;;;;4970604;28;20740;-60
2024/01/05 02:25:50;;;;;;;4.13;3.43;;;1.60;99.90;;;;;;4973714;28;20201;-60
2024/01/05 02:28:18;;;;;;;4.77;3.17;;;1.60;99.90;;;;;;4970281;28;20431;-60
2024/01/05 02:30:44;;;;;;;3.33;2.57;;;1.60;99.90;;;;;;4966791;28;20178;-60
2024/01/05 02:33:10;;;;;;;2.87;2.57;;;1.60;99.90;;;;;;4969616;28;20467;-60
2024/01/05 02:35:35;;;;;;;2.83;2.63;;;1.50;99.90;;;;;;4977117;28;20201;-60
2024/01/05 02:38:01;;;;;;;4.20;3.20;;;1.50;99.90;;;;;;4969887;28;20180;-61
2024/01/05 02:40:27;;;;;;;5.20;2.30;;;1.50;99.90;;;;;;4971332;28;20181;-60
2024/01/05 02:42:52;;;;;;;3.50;3.20;;;1.50;99.90;;;;;;4968425;28;20261;-60
2024/01/05 02:45:20;;;;;;;8.50;3.63;;;1.50;99.90;;;;;;4966136;28;20220;-60
2024/01/05 02:47:49;;;;;;;5.03;3.83;;;1.50;99.90;;;;;;4972799;28;20433;-60
2024/01/05 02:50:16;;;;;;;5.07;2.53;;;1.50;99.90;;;;;;4969341;28;20417;-60
2024/01/05 02:52:41;;;;;;;2.73;2.43;;;1.50;99.90;;;;;;4971393;28;20425;-60
2024/01/05 02:55:09;;;;;;;7.83;3.30;;;1.50;99.90;;;;;;4971292;28;20443;-60
2024/01/05 02:57:34;;;;;;;4.20;3.00;;;1.50;99.90;;;;;;4967938;28;20181;-60
2024/01/05 03:00:00;;;;;;;6.13;3.67;;;1.50;99.90;;;;;;4968269;28;21310;-60
2024/01/05 03:02:26;;;;;;;10.30;3.67;;;1.40;99.90;;;;;;4971787;28;20652;-60
2024/01/05 03:04:51;;;;;;;3.23;3.03;;;1.40;99.90;;;;;;4974494;28;20711;-60
2024/01/05 03:07:18;;;;;;;8.30;3.10;;;1.50;99.90;;;;;;4971383;28;20174;-60
2024/01/05 03:09:43;;;;;;;5.53;3.33;;;1.50;99.90;;;;;;4970955;28;20225;-60
2024/01/05 03:12:09;;;;;;;3.70;3.23;;;1.50;99.90;;;;;;4970379;28;20968;-60
2024/01/05 03:14:35;;;;;;;2.80;2.30;;;1.50;99.90;;;;;;4968425;28;20205;-60
2024/01/05 03:17:02;;;;;;;3.60;3.30;;;1.50;99.90;;;;;;4967344;28;20186;-60
2024/01/05 03:19:28;;;;;;;2.90;2.70;;;1.40;99.90;;;;;;4967840;28;20190;-62
2024/01/05 03:21:54;;;;;;;3.37;2.97;;;1.40;99.90;;;;;;4969616;28;20421;-60
2024/01/05 03:24:19;;;;;;;5.63;3.70;;;1.40;99.90;;;;;;4969970;28;20209;-60
2024/01/05 03:26:45;;;;;;;3.67;3.37;;;1.30;99.90;;;;;;4954887;28;20429;-59
2024/01/05 03:29:11;;;;;;;5.97;3.70;;;1.30;99.90;;;;;;4972722;28;20181;-61
2024/01/05 03:31:37;;;;;;;3.23;2.80;;;1.30;99.90;;;;;;4972029;28;20169;-61
2024/01/05 03:34:02;;;;;;;3.00;2.80;;;1.30;99.90;;;;;;4970485;28;20184;-61
2024/01/05 03:36:28;;;;;;;6.27;4.03;;;1.30;99.90;;;;;;4971841;28;20614;-59
2024/01/05 03:38:54;;;;;;;2.77;2.57;;;1.30;99.90;;;;;;4971498;28;20182;-59
2024/01/05 03:41:20;;;;;;;5.60;3.00;;;1.30;99.90;;;;;;4971247;28;20628;-59
2024/01/05 03:43:46;;;;;;;3.40;2.90;;;1.20;99.90;;;;;;4970237;28;20569;-56
2024/01/05 03:46:12;;;;;;;4.20;2.87;;;1.20;99.90;;;;;;4972055;28;20452;-60
2024/01/05 03:48:38;;;;;;;5.97;4.23;;;1.20;99.90;;;;;;4969990;28;20673;-61
2024/01/05 03:51:04;;;;;;;5.87;3.20;;;1.20;99.90;;;;;;4971892;28;20508;-59
2024/01/05 03:53:30;;;;;;;5.73;3.40;;;1.10;99.90;;;;;;4970422;28;20511;-58
2024/01/05 03:55:59;;;;;;;6.70;3.87;;;1.10;99.90;;;;;;4972869;28;20446;-56
2024/01/05 03:58:25;;;;;;;5.53;3.53;;;1.10;99.90;;;;;;4975885;28;20589;-61
2024/01/05 04:00:50;;;;;;;5.30;3.30;;;1.10;99.90;;;;;;4973865;28;20540;-60
2024/01/05 04:03:17;;;;;;;6.60;3.60;;;1.20;99.90;;;;;;4972300;28;20206;-61
2024/01/05 04:05:43;;;;;;;4.50;3.90;;;1.20;99.90;;;;;;4973055;28;20225;-58
2024/01/05 04:08:08;;;;;;;4.33;3.93;;;1.20;99.90;;;;;;4972851;28;20420;-58
2024/01/05 04:10:35;;;;;;;4.40;3.93;;;1.20;99.90;;;;;;4974395;28;20776;-59
2024/01/05 04:13:01;;;;;;;6.03;4.23;;;1.20;99.90;;;;;;4976873;28;20662;-60
2024/01/05 04:15:27;;;;;;;5.73;4.70;;;1.20;99.90;;;;;;4974203;28;20552;-55
2024/01/05 04:17:53;;;;;;;6.33;3.83;;;1.10;99.90;;;;;;4973118;28;20270;-61
2024/01/05 04:20:19;;;;;;;6.27;4.20;;;1.20;99.90;;;;;;4972901;28;20467;-61
2024/01/05 04:22:45;;;;;;;5.80;5.07;;;1.20;99.90;;;;;;4972473;28;20569;-57
2024/01/05 04:25:10;;;;;;;5.53;5.00;;;1.20;99.90;;;;;;4974062;28;20201;-58
2024/01/05 04:27:37;;;;;;;6.30;4.20;;;1.20;99.90;;;;;;4973363;28;20170;-58
2024/01/05 04:30:03;;;;;;;4.97;4.43;;;1.10;99.90;;;;;;4974635;28;20664;-59
2024/01/05 04:32:29;;;;;;;6.33;4.43;;;1.20;99.90;;;;;;4976767;28;20609;-58
2024/01/05 04:34:55;;;;;;;11.97;5.30;;;1.10;99.90;;;;;;4975120;28;20875;-57
2024/01/05 04:37:20;;;;;;;6.90;3.80;;;1.10;99.90;;;;;;4977646;28;20593;-60
2024/01/05 04:39:46;;;;;;;5.73;4.30;;;1.20;99.90;;;;;;4977231;28;20553;-61
2024/01/05 04:42:12;;;;;;;5.70;5.10;;;1.10;99.90;;;;;;4974711;28;20377;-61
2024/01/05 04:44:38;;;;;;;5.33;4.83;;;1.20;99.90;;;;;;4970493;28;20197;-61
2024/01/05 04:47:04;;;;;;;5.97;5.37;;;1.20;99.90;;;;;;4974972;28;20417;-60
2024/01/05 04:49:31;;;;;;;8.40;4.00;;;1.10;99.90;;;;;;4970841;28;20185;-60
2024/01/05 04:51:58;;;;;;;5.23;4.73;;;1.10;99.90;;;;;;4973734;28;20182;-61
2024/01/05 04:54:23;;;;;;;4.30;3.80;;;1.10;99.90;;;;;;4974138;28;20429;-61
2024/01/05 04:56:49;;;;;;;7.70;4.60;;;1.10;99.90;;;;;;4974446;28;20935;-61
2024/01/05 04:59:15;;;;;;;8.47;4.33;;;1.10;99.90;;;;;;4971114;28;20185;-58
2024/01/05 05:01:40;;;;;;;4.40;4.00;;;1.10;99.90;;;;;;4972792;28;20189;-60
2024/01/05 05:04:06;;;;;;;4.10;3.70;;;1.00;99.90;;;;;;4970122;28;20292;-60
2024/01/05 05:06:31;;;;;;;6.60;4.80;;;1.00;99.90;;;;;;4974090;28;20193;-60
2024/01/05 05:08:57;;;;;;;8.83;5.47;;;1.00;99.90;;;;;;4971818;28;20182;-60
2024/01/05 05:11:23;;;;;;;6.20;5.30;;;0.90;99.90;;;;;;4970158;28;20182;-60
2024/01/05 05:13:48;;;;;;;11.00;4.50;;;1.00;99.90;;;;;;4973264;28;20642;-61
2024/01/05 05:16:14;;;;;;;10.93;5.80;;;0.90;99.90;;;;;;4972346;28;20595;-63
2024/01/05 05:18:39;;;;;;;7.00;5.87;;;0.90;99.90;;;;;;4972723;28;20188;-60
2024/01/05 05:21:05;;;;;;;13.10;5.63;;;0.90;99.90;;;;;;4975043;28;20181;-61
2024/01/05 05:23:31;;;;;;;4.97;4.47;;;0.80;99.90;;;;;;4974237;28;20197;-61
2024/01/05 05:25:57;;;;;;;5.50;3.90;;;0.90;99.90;;;;;;4973254;28;20483;-61
2024/01/05 05:28:23;;;;;;;5.20;4.47;;;0.90;99.90;;;;;;4973477;28;20181;-61
2024/01/05 05:30:49;;;;;;;6.33;5.10;;;0.80;99.90;;;;;;4975232;28;20701;-60
2024/01/05 05:33:15;;;;;;;4.70;4.23;;;0.80;99.90;;;;;;4972093;28;20422;-60
2024/01/05 05:35:40;;;;;;;4.60;3.60;;;0.80;99.90;;;;;;4974143;28;20445;-60
2024/01/05 05:38:06;;;;;;;5.77;3.90;;;0.90;99.90;;;;;;4973107;28;20652;-60
2024/01/05 05:40:32;;;;;;;4.33;3.93;;;0.80;99.90;;;;;;4974349;28;20308;-61
2024/01/05 05:42:58;;;;;;;6.60;4.97;;;0.80;99.90;;;;;;4975483;28;20260;-60
2024/01/05 05:45:23;;;;;;;5.03;4.10;;;0.80;99.90;;;;;;4969164;28;20479;-61
2024/01/05 05:47:50;;;;;;;5.67;4.13;;;0.80;99.90;;;;;;4975110;28;20178;-60
2024/01/05 05:50:16;;;;;;;5.20;4.50;;;0.80;99.90;;;;;;4974791;28;20645;-60
2024/01/05 05:52:43;;;;;;;7.27;5.17;;;0.80;99.90;;;;;;4975050;28;20420;-60
2024/01/05 05:55:12;;;;;;;6.27;4.80;;;0.80;99.90;;;;;;4974101;28;20294;-60
2024/01/05 05:57:39;;;;;;;6.20;4.53;;;0.80;99.90;;;;;;4972240;28;20417;-61
2024/01/05 06:00:05;;;;;;;6.60;4.27;;;0.80;99.90;;;;;;4987341;28;20435;-61
2024/01/05 06:02:31;;;;;;;6.30;4.20;;;0.80;99.90;;;;;;4971058;28;20433;-60
2024/01/05 06:04:57;;;;;;;4.83;4.37;;;0.80;99.90;;;;;;4972293;28;20463;-61
2024/01/05 06:07:23;;;;;;;7.60;3.13;;;0.80;99.90;;;;;;4971102;28;20180;-60
2024/01/05 06:09:50;;;;;;;6.00;4.17;;;0.70;99.90;;;;;;4971098;28;20228;-62
2024/01/05 06:12:15;;;;;;;4.20;3.80;;;0.80;99.90;;;;;;4971837;28;20995;-60
2024/01/05 06:14:41;;;;;;;6.03;3.77;;;0.80;99.90;;;;;;4972109;28;20532;-60
2024/01/05 06:17:06;;;;;;;3.80;3.40;;;0.80;99.90;;;;;;4969843;28;20181;-60
2024/01/05 06:19:32;;;;;;;4.00;3.63;;;0.80;99.90;;;;;;4968810;28;20181;-60
2024/01/05 06:21:59;;;;;;;5.20;4.80;;;0.90;99.90;;;;;;4968659;28;20179;-60
2024/01/05 06:24:25;;;;;;;5.20;4.20;;;0.80;99.90;;;;;;4965985;28;20236;-63
2024/01/05 06:26:51;;;;;;;4.40;3.57;;;0.80;99.90;;;;;;4969119;28;20461;-60
2024/01/05 06:29:17;;;;;;;4.63;2.90;;;0.80;99.90;;;;;;4967925;28;20932;-61
2024/01/05 06:31:43;;;;;;;3.87;3.00;;;0.80;99.90;;;;;;4969255;28;20181;-60
2024/01/05 06:34:08;;;;;;;5.23;3.83;;;0.80;99.90;;;;;;4971133;28;21027;-58
2024/01/05 06:36:34;;;;;;;6.57;4.07;;;0.80;99.90;;;;;;4971921;28;20210;-60
2024/01/05 06:39:00;;;;;;;4.13;3.60;;;0.80;99.90;;;;;;4969771;28;20188;-60
2024/01/05 06:41:25;;;;;;;5.53;3.57;;;0.80;99.90;;;;;;4966937;28;20660;-60
2024/01/05 06:43:51;;;;;;;11.70;4.77;;;0.80;99.90;;;;;;4969079;28;20205;-60
2024/01/05 06:46:17;;;;;;;5.70;4.50;;;0.80;99.90;;;;;;4962528;28;20260;-59
2024/01/05 06:48:42;;;;;;;9.67;3.80;;;0.70;99.90;;;;;;4970049;28;20240;-60
2024/01/05 06:51:08;;;;;;;3.70;3.40;;;0.70;99.90;;;;;;4970368;28;21060;-58
2024/01/05 06:53:34;;;;;;;4.53;3.40;;;0.70;99.90;;;;;;4969034;28;20193;-60
2024/01/05 06:56:00;;;;;;;7.50;3.43;;;0.60;99.90;;;;;;4968068;28;20337;-60
2024/01/05 06:58:27;;;;;;;6.70;3.97;;;0.60;99.90;;;;;;4967054;28;20524;-60
2024/01/05 07:00:53;;;;;;;4.57;3.83;;;0.60;99.90;;;;;;4969166;28;20444;-60
2024/01/05 07:03:18;;;;;;;5.07;3.83;;;0.60;99.90;;;;;;4970057;28;20429;-60
2024/01/05 07:05:44;;;;;;;5.80;4.10;;;0.60;99.90;;;;;;4969552;28;20225;-60
2024/01/05 07:08:10;;;;;;;13.10;6.43;;;0.50;99.90;;;;;;4971850;28;20173;-60
2024/01/05 07:10:35;;;;;;;8.13;4.20;;;0.50;99.90;;;;;;4966694;28;20185;-60
2024/01/05 07:13:01;;;;;;;5.17;4.67;;;0.50;99.90;;;;;;4970085;28;20178;-60
2024/01/05 07:15:29;;;;;;;10.83;4.50;;;0.60;99.90;;;;;;4969042;28;20236;-61
2024/01/05 07:17:55;;;;;;;6.33;5.43;;;0.50;99.90;;;;;;4969544;28;20174;-60
2024/01/05 07:20:20;;;;;;;7.40;5.03;;;0.60;99.90;;;;;;4968383;28;20437;-61
2024/01/05 07:22:46;;;;;;;10.07;5.07;;;0.50;99.90;;;;;;4965388;28;20429;-61
2024/01/05 07:25:11;;;;;;;6.40;4.20;;;0.50;99.90;;;;;;4972978;28;20549;-61
2024/01/05 07:27:37;;;;;;;7.90;5.03;;;0.40;99.90;;;;;;4966390;28;20188;-60
2024/01/05 07:30:05;;;;;;;6.03;4.80;;;0.30;99.90;;;;;;4971264;28;20588;-60
2024/01/05 07:32:30;;;;;;;5.17;4.50;;;0.30;99.90;;;;;;4970299;28;20177;-61
2024/01/05 07:34:56;;;;;;;6.70;5.60;;;0.30;99.90;;;;;;4969349;28;20453;-61
2024/01/05 07:37:22;;;;;;;7.43;5.10;;;0.30;99.90;;;;;;4969940;28;20185;-60
2024/01/05 07:39:47;;;;;;;8.53;6.30;;;0.30;99.90;;;;;;4970306;28;20575;-61
2024/01/05 07:42:13;;;;;;;9.80;4.93;;;0.30;99.90;;;;;;4968573;28;20424;-60
2024/01/05 07:44:39;;;;;;;12.93;5.70;;;0.30;99.90;;;;;;4969203;28;20256;-64
2024/01/05 07:47:05;;;;;;;8.17;5.57;;;0.30;99.90;;;;;;4969839;28;20185;-62
2024/01/05 07:49:30;;;;;;;6.00;5.20;;;0.20;99.90;;;;;;4972609;28;20433;-60
2024/01/05 07:51:56;;;;;;;5.67;4.40;;;0.30;99.90;;;;;;4970155;28;20193;-60
2024/01/05 07:54:21;;;;;;;8.37;7.13;;;0.30;99.90;;;;;;4968403;28;20178;-61
2024/01/05 07:56:47;;;;;;;6.93;6.17;;;0.30;99.90;;;;;;4971070;28;20208;-61
2024/01/05 07:59:15;;;;;;;7.60;5.80;;;0.30;99.90;;;;;;4974096;28;20227;-61
2024/01/05 08:01:41;;;;;;;5.80;5.30;;;0.30;99.90;;;;;;4969151;28;20329;-61
2024/01/05 08:04:07;;;;;;;10.57;6.63;;;0.30;99.90;;;;;;4973705;28;20606;-61
2024/01/05 08:06:33;;;;;;;5.30;4.57;;;0.30;99.90;;;;;;4969177;28;20947;-60
2024/01/05 08:08:59;;;;;;;12.40;5.23;;;0.30;99.90;;;;;;4973030;28;20512;-59
2024/01/05 08:11:24;;;;;;;8.73;6.37;;;0.30;99.90;;;;;;4970568;28;20174;-57
2024/01/05 08:13:51;;;;;;;16.33;6.97;;;0.40;99.90;;;;;;4972005;28;20182;-58
2024/01/05 08:16:17;;;;;;;9.30;6.93;;;0.40;99.90;;;;;;4974001;28;20279;-61
2024/01/05 08:18:43;;;;;;;12.43;7.10;;;0.40;99.90;;;;;;4976446;28;20507;-60
2024/01/05 08:21:09;;;;;;;11.17;6.50;;;0.40;99.90;;;;;;4975018;28;20853;-60
2024/01/05 08:23:35;;;;;;;10.60;7.63;;;0.40;99.90;;;;;;4972376;28;20464;-60
2024/01/05 08:26:03;;;;;;;12.40;6.23;;;0.40;99.90;;;;;;4971195;28;20664;-60
2024/01/05 08:28:30;;;;;;;9.87;6.43;;;0.40;99.90;;;;;;4974494;28;20417;-59
2024/01/05 08:30:56;;;;;;;9.23;6.37;;;0.40;99.90;;;;;;4973910;28;20802;-60
2024/01/05 08:33:22;;;;;;;8.27;5.53;;;0.50;99.90;;;;;;4973856;28;20934;-60
2024/01/05 08:35:47;;;;;;;11.50;5.47;;;0.50;99.90;;;;;;4974013;28;20437;-61
2024/01/05 08:38:14;;;;;;;8.10;5.43;;;0.50;99.90;;;;;;4973955;28;20236;-60
2024/01/05 08:40:40;;;;;;;11.10;5.70;;;0.50;99.90;;;;;;4972616;28;20537;-60
2024/01/05 08:43:06;;;;;;;8.60;6.60;;;0.50;99.90;;;;;;4973003;28;20412;-60
2024/01/05 08:45:34;;;;;;;9.07;6.97;;;0.50;99.90;;;;;;4982693;28;20468;-59
2024/01/05 08:48:00;;;;;;;7.43;6.13;;;0.50;99.90;;;;;;4971233;28;20190;-60
2024/01/05 08:50:25;;;;;;;8.63;6.43;;;0.50;99.90;;;;;;4983626;28;20927;-61
2024/01/05 08:52:51;;;;;;;6.63;5.93;;;0.50;99.90;;;;;;4976443;28;20520;-59
2024/01/05 08:55:20;;;;;;;8.73;6.50;;;0.50;99.90;;;;;;4975946;28;20274;-59
2024/01/05 08:57:47;;;;;;;7.30;6.20;;;0.50;99.90;;;;;;4975254;28;20256;-59
2024/01/05 09:00:13;;;;;;;9.43;7.23;;;0.60;99.90;;;;;;4983610;28;20417;-61
2024/01/05 09:02:39;;;;;;;11.43;6.30;;;0.60;99.90;;;;;;4982395;28;20484;-57
2024/01/05 09:05:05;;;;;;;7.73;6.13;;;0.60;99.90;;;;;;4985309;28;20212;-61
2024/01/05 09:07:34;;;;;;;10.83;7.50;;;0.60;99.90;;;;;;4985433;28;20424;-63
2024/01/05 09:10:00;;;;;;;7.23;6.10;;;0.90;99.90;;;;;;4988612;28;20424;-61
2024/01/05 09:12:27;;;;;;;7.10;5.60;;;0.70;99.90;;;;;;4985485;28;20421;-60
2024/01/05 09:14:53;;;;;;;7.30;5.30;;;0.60;99.90;;;;;;4981753;28;20456;-61
2024/01/05 09:17:19;;;;;;;10.43;6.47;;;0.60;99.90;;;;;;4974354;28;20425;-61
2024/01/05 09:19:45;;;;;;;7.87;5.73;;;0.60;99.90;;;;;;4969165;28;20421;-61
2024/01/05 09:22:11;;;;;;;13.10;5.87;;;0.70;99.90;;;;;;4968567;28;20442;-61
2024/01/05 09:24:37;;;;;;;6.67;5.57;;;0.60;99.90;;;;;;4982564;28;20511;-61
2024/01/05 09:27:04;;;;;;;6.50;5.90;;;0.60;99.90;;;;;;4969141;28;20417;-60
2024/01/05 09:29:31;;;;;;;6.43;5.67;;;0.60;99.90;;;;;;4971671;28;20413;-61
2024/01/05 09:31:57;;;;;;;8.37;5.20;;;0.60;99.90;;;;;;4973215;28;20415;-61
2024/01/05 09:34:22;;;;;;;7.53;5.30;;;0.60;99.90;;;;;;4971402;28;20434;-61
2024/01/05 09:36:48;;;;;;;7.47;5.27;;;0.60;99.90;;;;;;4969493;28;20216;-61
2024/01/05 09:39:14;;;;;;;6.20;4.30;;;0.60;99.90;;;;;;4970951;28;20182;-59
2024/01/05 09:41:46;;;;;;;5.30;4.77;;;0.60;99.90;;;;;;4974292;28;20428;-61
2024/01/05 09:44:12;;;;;;;9.57;6.60;;;0.60;99.90;;;;;;4975039;28;21049;-66
2024/01/05 09:46:39;;;;;;;6.30;4.93;;;0.60;99.90;;;;;;4973897;28;20475;-62
2024/01/05 09:49:07;;;;;;;6.97;5.87;;;0.70;99.90;;;;;;4968927;28;20429;-64
2024/01/05 09:51:32;;;;;;;8.97;5.20;;;0.70;99.90;;;;;;4973441;28;20430;-64
2024/01/05 09:53:59;;;;;;;6.67;5.07;;;0.60;99.90;;;;;;4974416;28;20821;-64
2024/01/05 09:56:28;;;;;;;6.10;5.00;;;0.70;99.90;;;;;;4974826;28;20551;-61
2024/01/05 09:58:55;;;;;;;5.60;5.07;;;0.60;99.90;;;;;;4972935;28;20421;-59
2024/01/05 10:01:28;;;;;;;8.17;5.80;;;0.60;99.90;;;;;;4980199;28;20569;-61
2024/01/05 10:03:58;;;;;;;6.97;4.77;;;0.70;99.90;;;;;;4980407;28;20456;-61
2024/01/05 10:06:25;;;;;;;34.97;17.27;;;0.70;99.90;;;;;;4976116;28;20432;-62
2024/01/05 10:08:54;;;;;;;10.10;8.00;;;0.90;99.90;;;;;;4982898;28;20424;-64
2024/01/05 10:11:34;;;;;;;4.87;3.73;;;1.40;99.90;;;;;;4982846;28;20779;-63
2024/01/05 10:14:07;;;;;;;8.50;4.30;;;1.00;99.90;;;;;;4984521;28;20427;-64
2024/01/05 10:16:39;;;;;;;6.20;5.27;;;0.90;99.90;;;;;;4978204;28;20506;-61
2024/01/05 10:19:18;;;;;;;6.37;4.80;;;0.80;99.90;;;;;;4977750;28;20429;-59
2024/01/05 10:21:47;;;;;;;5.83;4.97;;;0.80;99.90;;;;;;4977732;28;20964;-61
2024/01/05 10:24:29;;;;;;;5.93;5.43;;;0.80;99.90;;;;;;4980500;28;20487;-61
2024/01/05 10:27:02;;;;;;;10.40;4.90;;;0.80;99.90;;;;;;4984796;28;20507;-59
2024/01/05 10:29:27;;;;;;;7.67;5.43;;;0.90;99.90;;;;;;4979989;28;20414;-60
2024/01/05 10:31:53;;;;;;;8.30;5.00;;;0.80;99.90;;;;;;4981634;28;20482;-61
2024/01/05 10:34:19;;;;;;;7.00;4.63;;;0.90;99.90;;;;;;4984136;28;20185;-61
2024/01/05 10:36:45;;;;;;;6.20;5.07;;;0.90;99.90;;;;;;4973960;28;20182;-59
2024/01/05 10:39:10;;;;;;;6.87;6.00;;;0.90;99.90;;;;;;4975897;28;20260;-58
2024/01/05 10:41:37;;;;;;;5.80;4.70;;;0.90;99.90;;;;;;4979204;28;20193;-61
2024/01/05 10:44:04;;;;;;;5.43;4.83;;;0.80;99.90;;;;;;4981812;28;20201;-60
2024/01/05 10:46:31;;;;;;;7.70;6.70;;;0.80;99.90;;;;;;4987617;28;20454;-60
2024/01/05 10:48:57;;;;;;;8.43;5.00;;;0.80;99.90;;;;;;4979368;28;21272;-60
2024/01/05 10:51:25;;;;;;;5.83;4.57;;;0.80;99.90;;;;;;4975043;28;20499;-60
2024/01/05 10:53:51;;;;;;;7.20;5.47;;;0.90;99.90;;;;;;4989946;28;20660;-60
2024/01/05 10:56:20;;;;;;;6.03;4.87;;;0.80;99.90;;;;;;4985851;28;20520;-60
2024/01/05 10:58:49;;;;;;;5.90;5.30;;;0.80;99.90;;;;;;4985661;28;20925;-60
2024/01/05 11:01:18;;;;;;;5.03;3.93;;;0.90;99.90;;;;;;4982348;28;20612;-62
2024/01/05 11:03:47;;;;;;;7.30;4.90;;;0.80;99.90;;;;;;4984942;28;20455;-61
2024/01/05 11:06:13;;;;;;;5.47;4.97;;;0.80;99.90;;;;;;4985538;28;20500;-60
2024/01/05 11:08:52;;;;;;;7.50;4.27;;;0.80;99.90;;;;;;4984700;28;20422;-58
2024/01/05 11:12:01;;;;;;;7.17;4.87;;;0.70;99.90;;;;;;4988128;28;20420;-60
2024/01/05 11:14:38;;;;;;;8.73;4.97;;;0.70;99.90;;;;;;4986131;28;20409;-61
2024/01/05 11:17:07;;;;;;;7.40;4.03;;;0.70;99.90;;;;;;4983193;28;20443;-61
2024/01/05 11:19:49;;;;;;;5.10;3.90;;;0.70;99.90;;;;;;4983380;28;20421;-62
2024/01/05 11:22:23;;;;;;;5.53;5.03;;;0.70;99.90;;;;;;4977175;28;20425;-61
2024/01/05 11:24:50;;;;;;;5.50;4.33;;;0.70;99.90;;;;;;4980930;28;20477;-62
2024/01/05 11:27:30;;;;;;;7.23;4.73;;;0.70;99.90;;;;;;4989620;28;20432;-62
2024/01/05 11:29:57;;;;;;;7.77;5.70;;;0.70;99.90;;;;;;4974997;28;20577;-61
2024/01/05 11:32:42;;;;;;;6.97;5.07;;;0.70;99.90;;;;;;4983040;28;20512;-62
2024/01/05 11:35:17;;;;;;;9.33;6.30;;;0.70;99.90;;;;;;4983967;28;20812;-62
2024/01/05 11:37:48;;;;;;;5.70;4.13;;;0.70;99.90;;;;;;4977380;28;20420;-62
2024/01/05 11:40:28;;;;;;;5.73;4.87;;;0.70;99.90;;;;;;4971247;28;20444;-61
2024/01/05 11:42:54;;;;;;;6.50;4.97;;;0.70;99.90;;;;;;4971436;28;20830;-60
2024/01/05 11:45:41;;;;;;;6.43;5.80;;;0.70;99.90;;;;;;4974616;28;20473;-61
2024/01/05 11:48:07;;;;;;;7.60;5.90;;;0.60;99.90;;;;;;4969912;28;20475;-60
2024/01/05 11:50:35;;;;;;;7.37;5.50;;;0.70;99.90;;;;;;4978576;28;20444;-62
2024/01/05 11:53:06;;;;;;;6.77;5.17;;;0.70;99.90;;;;;;4980109;28;20420;-62
2024/01/05 11:55:39;;;;;;;8.53;6.40;;;0.70;99.90;;;;;;4974527;28;20826;-61
2024/01/05 11:58:08;;;;;;;7.40;6.53;;;0.70;99.90;;;;;;4970183;28;20905;-60
2024/01/05 12:00:35;;;;;;;8.30;5.80;;;0.70;99.90;;;;;;4971809;28;20770;-62
2024/01/05 12:03:04;;;;;;;6.17;4.83;;;0.70;99.90;;;;;;4970153;28;20444;-63
2024/01/05 12:05:31;;;;;;;7.77;5.47;;;0.70;99.90;;;;;;4972805;28;20841;-61
2024/01/05 12:07:57;;;;;;;10.70;6.97;;;0.70;99.90;;;;;;4972298;28;20492;-61
2024/01/05 12:10:32;;;;;;;13.60;7.77;;;0.70;99.90;;;;;;4972760;28;20555;-61
2024/01/05 12:12:58;;;;;;;34.23;21.83;;;0.80;99.90;;;;;;4972037;28;20503;-62
2024/01/05 12:15:24;;;;;;;6.40;5.87;;;0.90;99.90;;;;;;4973219;28;20528;-62
2024/01/05 12:18:00;;;;;;;6.43;5.60;;;0.80;99.90;;;;;;4971288;28;20564;-62
2024/01/05 12:20:26;;;;;;;7.20;6.30;;;0.70;99.90;;;;;;4979003;28;20426;-61
2024/01/05 12:22:51;;;;;;;5.93;5.23;;;0.70;99.90;;;;;;4967791;28;20417;-61
2024/01/05 12:25:17;;;;;;;8.63;7.27;;;0.70;99.90;;;;;;4976626;28;20280;-61
2024/01/05 12:27:43;;;;;;;6.00;5.27;;;0.80;99.90;;;;;;4980358;28;20248;-62
2024/01/05 12:30:12;;;;;;;9.63;8.00;;;0.80;99.90;;;;;;4973838;28;20178;-61
2024/01/05 12:32:38;;;;;;;7.80;6.00;;;0.80;99.90;;;;;;4969202;28;20193;-60
2024/01/05 12:35:05;;;;;;;6.40;5.37;;;0.80;99.90;;;;;;4971477;28;20539;-61
2024/01/05 12:37:32;;;;;;;7.47;6.37;;;0.70;99.90;;;;;;4974039;28;20479;-61
2024/01/05 12:40:10;;;;;;;8.37;6.83;;;0.70;99.90;;;;;;4973412;28;20923;-61
2024/01/05 12:42:39;;;;;;;6.40;5.23;;;0.70;99.90;;;;;;4972533;28;20432;-63
2024/01/05 12:45:08;;;;;;;8.17;6.07;;;0.80;99.90;;;;;;4970538;28;20464;-61
2024/01/05 12:47:34;;;;;;;8.53;6.20;;;0.80;99.90;;;;;;4973356;28;20413;-61
2024/01/05 12:50:01;;;;;;;6.50;4.63;;;0.80;99.90;;;;;;4973709;28;20429;-59
2024/01/05 12:52:34;;;;;;;8.30;6.47;;;0.80;99.90;;;;;;4978473;28;20432;-61
2024/01/05 12:55:00;;;;;;;6.90;5.33;;;0.80;99.90;;;;;;4974371;28;20441;-60